Time;durP1;ratioP1;P1;durP2;ratioP2;P2;SDS_P1;SDS_P2;PMS_P1;PMS_P2;Temp;Humidity;BMP_temperature;BMP_pressure;BME280_temperature;BME280_humidity;BME280_pressure;Samples;Min_cycle;Max_cycle;Signal;HPM_P1;HPM_P2
2023/05/09 00:01:34;;;;;;;9.10;0.93;;;6.40;99.90;;;;;;4147067;28;20030;-68
2023/05/09 00:03:35;;;;;;;1.00;0.83;;;6.50;99.90;;;;;;4160225;28;20498;-67
2023/05/09 00:05:36;;;;;;;1.93;0.70;;;6.40;99.90;;;;;;4162204;28;20452;-60
2023/05/09 00:07:37;;;;;;;1.10;0.70;;;6.40;99.90;;;;;;4158858;28;20068;-61
2023/05/09 00:09:38;;;;;;;1.27;0.53;;;6.50;99.90;;;;;;4160766;28;20087;-69
2023/05/09 00:11:39;;;;;;;2.30;0.60;;;6.50;99.90;;;;;;4160551;28;20041;-60
2023/05/09 00:13:42;;;;;;;0.70;0.50;;;6.50;99.90;;;;;;4160069;28;20021;-68
2023/05/09 00:15:45;;;;;;;7.43;1.50;;;6.50;99.90;;;;;;4160702;28;20129;-63
2023/05/09 00:17:46;;;;;;;5.13;1.77;;;6.60;99.90;;;;;;4161027;28;20033;-67
2023/05/09 00:19:49;;;;;;;1.00;0.57;;;6.60;99.90;;;;;;4160539;28;20045;-69
2023/05/09 00:21:50;;;;;;;0.57;0.47;;;6.60;99.90;;;;;;4160891;28;20030;-68
2023/05/09 00:23:52;;;;;;;0.60;0.40;;;6.60;99.90;;;;;;4151346;28;20188;-67
2023/05/09 00:25:53;;;;;;;1.13;0.90;;;6.60;99.90;;;;;;4144040;28;20099;-66
2023/05/09 00:27:54;;;;;;;1.00;0.50;;;6.60;99.90;;;;;;4145519;28;20088;-65
2023/05/09 00:29:55;;;;;;;2.83;0.70;;;6.60;99.90;;;;;;4129281;28;20439;-66
2023/05/09 00:31:56;;;;;;;0.77;0.40;;;6.60;99.90;;;;;;4119124;28;20079;-70
2023/05/09 00:33:58;;;;;;;1.07;0.50;;;6.60;99.90;;;;;;4143952;28;20458;-68
2023/05/09 00:35:59;;;;;;;1.13;0.33;;;6.60;99.90;;;;;;4158970;28;20424;-65
2023/05/09 00:38:00;;;;;;;0.77;0.50;;;6.60;99.90;;;;;;4160759;28;20029;-65
2023/05/09 00:40:02;;;;;;;2.83;0.67;;;6.60;99.90;;;;;;4161122;28;20852;-66
2023/05/09 00:42:03;;;;;;;2.13;0.80;;;6.60;99.90;;;;;;4160381;28;20075;-66
2023/05/09 00:44:04;;;;;;;2.43;0.70;;;6.60;99.90;;;;;;4155454;28;20461;-62
2023/05/09 00:46:06;;;;;;;1.50;0.90;;;6.60;99.90;;;;;;4144223;28;20030;-67
2023/05/09 00:48:07;;;;;;;1.80;0.80;;;6.50;99.90;;;;;;4144946;28;20045;-66
2023/05/09 00:50:08;;;;;;;2.53;0.60;;;6.50;99.90;;;;;;4157719;28;21263;-68
2023/05/09 00:52:10;;;;;;;0.80;0.47;;;6.50;99.90;;;;;;4160318;28;20087;-66
2023/05/09 00:54:11;;;;;;;1.60;0.63;;;6.50;99.90;;;;;;4158494;28;20107;-69
2023/05/09 00:56:13;;;;;;;0.77;0.40;;;6.50;99.90;;;;;;4150880;28;20432;-65
2023/05/09 00:58:15;;;;;;;1.23;0.50;;;6.60;99.90;;;;;;4161457;28;20026;-63
2023/05/09 01:00:17;;;;;;;1.27;0.50;;;6.60;99.90;;;;;;4159930;28;20049;-62
2023/05/09 01:02:18;;;;;;;0.93;0.83;;;6.60;99.90;;;;;;4160427;28;20438;-61
2023/05/09 01:04:19;;;;;;;1.00;0.40;;;6.60;99.90;;;;;;4140793;28;20136;-66
2023/05/09 01:06:38;;;;;;;0.70;0.50;;;6.60;99.90;;;;;;4160430;28;20095;-67
2023/05/09 01:08:58;;;;;;;2.00;0.50;;;6.70;99.90;;;;;;4144184;28;20470;-66
2023/05/09 01:11:09;;;;;;;1.90;0.60;;;6.70;99.90;;;;;;4160767;28;20033;-65
2023/05/09 01:13:40;;;;;;;1.50;0.63;;;6.70;99.90;;;;;;4147426;28;20145;-68
2023/05/09 01:15:44;;;;;;;0.60;0.50;;;6.70;99.90;;;;;;4147532;28;20038;-67
2023/05/09 01:17:52;;;;;;;0.77;0.50;;;6.70;99.90;;;;;;4160095;28;20433;-65
2023/05/09 01:20:04;;;;;;;0.80;0.60;;;6.70;99.90;;;;;;4160268;28;20095;-66
2023/05/09 01:22:09;;;;;;;2.10;0.80;;;6.70;99.90;;;;;;4162148;28;20092;-71
2023/05/09 01:24:40;;;;;;;1.17;0.50;;;6.70;99.90;;;;;;4158931;28;20100;-67
2023/05/09 01:26:51;;;;;;;1.17;0.60;;;6.70;99.90;;;;;;4151575;28;20049;-67
2023/05/09 01:28:55;;;;;;;0.82;0.50;;;6.70;99.90;;;;;;4153617;28;20034;-67
2023/05/09 01:30:56;;;;;;;2.23;0.60;;;6.70;99.90;;;;;;4129657;28;20031;-67
2023/05/09 01:33:00;;;;;;;1.27;0.40;;;6.70;99.90;;;;;;4160672;28;20058;-62
2023/05/09 01:35:04;;;;;;;1.03;0.50;;;6.70;99.90;;;;;;4163328;28;20033;-66
2023/05/09 01:37:07;;;;;;;0.53;0.37;;;6.70;99.90;;;;;;4148729;28;20108;-61
2023/05/09 01:39:11;;;;;;;1.83;0.60;;;6.70;99.90;;;;;;4146877;28;20029;-69
2023/05/09 01:41:14;;;;;;;0.23;0.20;;;6.70;99.90;;;;;;4151339;28;20471;-64
2023/05/09 01:43:18;;;;;;;0.70;0.50;;;6.70;99.90;;;;;;4148894;28;20093;-62
2023/05/09 01:45:20;;;;;;;1.03;0.47;;;6.70;99.90;;;;;;4153385;28;20045;-69
2023/05/09 01:47:22;;;;;;;0.93;0.73;;;6.70;99.90;;;;;;4162655;28;20041;-67
2023/05/09 01:49:25;;;;;;;0.67;0.30;;;6.80;99.90;;;;;;4155453;28;20565;-70
2023/05/09 01:51:27;;;;;;;1.73;0.57;;;6.70;99.90;;;;;;4146243;28;20045;-68
2023/05/09 01:53:30;;;;;;;1.00;0.40;;;6.70;99.90;;;;;;4148835;28;20033;-70
2023/05/09 01:55:33;;;;;;;1.33;0.60;;;6.70;99.90;;;;;;4160964;28;20088;-60
2023/05/09 01:57:35;;;;;;;1.20;0.67;;;6.70;99.90;;;;;;4162251;28;20041;-67
2023/05/09 01:59:43;;;;;;;1.97;0.57;;;6.70;99.90;;;;;;4157062;28;20072;-64
2023/05/09 02:01:45;;;;;;;0.77;0.57;;;6.70;99.90;;;;;;4147438;28;20437;-62
2023/05/09 02:03:51;;;;;;;1.70;0.80;;;6.70;99.90;;;;;;4146836;28;20026;-68
2023/05/09 02:05:54;;;;;;;1.73;0.73;;;6.60;99.90;;;;;;4148752;28;20100;-67
2023/05/09 02:07:57;;;;;;;2.40;0.80;;;6.60;99.90;;;;;;4130996;28;20596;-66
2023/05/09 02:10:01;;;;;;;1.20;0.87;;;6.60;99.90;;;;;;4162768;28;20107;-62
2023/05/09 02:12:03;;;;;;;2.10;1.00;;;6.50;99.90;;;;;;4159378;28;20549;-63
2023/05/09 02:14:05;;;;;;;13.23;1.40;;;6.50;99.90;;;;;;4146385;28;20081;-64
2023/05/09 02:16:06;;;;;;;2.23;0.80;;;6.50;99.90;;;;;;4141796;28;20030;-66
2023/05/09 02:18:08;;;;;;;1.57;0.80;;;6.50;99.90;;;;;;4137504;28;20072;-69
2023/05/09 02:20:10;;;;;;;2.33;1.10;;;6.50;99.90;;;;;;4158275;28;20096;-59
2023/05/09 02:22:12;;;;;;;2.90;1.00;;;6.50;99.90;;;;;;4146239;28;20544;-67
2023/05/09 02:24:13;;;;;;;3.70;1.10;;;6.50;99.90;;;;;;4147270;28;20422;-69
2023/05/09 02:26:15;;;;;;;1.63;0.90;;;6.50;99.90;;;;;;4151945;28;20037;-69
2023/05/09 02:28:18;;;;;;;1.33;0.90;;;6.50;99.90;;;;;;4158758;28;20429;-62
2023/05/09 02:30:23;;;;;;;1.87;0.70;;;6.50;99.90;;;;;;4154942;28;20496;-68
2023/05/09 02:32:28;;;;;;;2.10;1.13;;;6.50;99.90;;;;;;4162974;28;20076;-61
2023/05/09 02:34:30;;;;;;;2.57;0.93;;;6.50;99.90;;;;;;4161277;28;20574;-63
2023/05/09 02:36:32;;;;;;;1.20;0.63;;;6.50;99.90;;;;;;4163255;28;20049;-70
2023/05/09 02:38:34;;;;;;;2.63;0.80;;;6.50;99.90;;;;;;4162344;28;20034;-69
2023/05/09 02:40:36;;;;;;;0.90;0.73;;;6.50;99.90;;;;;;4150540;28;20490;-71
2023/05/09 02:42:37;;;;;;;0.77;0.60;;;6.40;99.90;;;;;;4146285;28;20448;-68
2023/05/09 02:44:38;;;;;;;1.60;0.73;;;6.40;99.90;;;;;;4155704;28;20033;-67
2023/05/09 02:46:39;;;;;;;0.80;0.70;;;6.40;99.90;;;;;;4162523;28;20076;-71
2023/05/09 02:48:41;;;;;;;2.83;1.10;;;6.40;99.90;;;;;;4161269;28;20041;-71
2023/05/09 02:50:42;;;;;;;1.27;0.83;;;6.40;99.90;;;;;;4163097;28;20083;-70
2023/05/09 02:52:43;;;;;;;0.70;0.60;;;6.40;99.90;;;;;;4148482;28;20112;-66
2023/05/09 02:54:44;;;;;;;0.93;0.70;;;6.40;99.90;;;;;;4156570;28;20107;-69
2023/05/09 02:56:46;;;;;;;4.20;0.57;;;6.40;99.90;;;;;;4161618;28;20029;-63
2023/05/09 02:58:50;;;;;;;5.10;0.60;;;6.30;99.90;;;;;;4159635;28;20029;-61
2023/05/09 03:00:51;;;;;;;2.13;0.80;;;6.40;99.90;;;;;;4150583;28;20067;-63
2023/05/09 03:02:52;;;;;;;2.73;0.83;;;6.40;99.90;;;;;;4163035;28;20429;-65
2023/05/09 03:04:53;;;;;;;1.83;0.50;;;6.40;99.90;;;;;;4162143;28;20034;-68
2023/05/09 03:06:54;;;;;;;1.47;0.60;;;6.40;99.90;;;;;;4163161;28;20042;-63
2023/05/09 03:08:55;;;;;;;0.70;0.60;;;6.50;99.90;;;;;;4161301;28;20446;-66
2023/05/09 03:10:56;;;;;;;1.30;1.20;;;6.60;99.90;;;;;;4147090;28;20038;-70
2023/05/09 03:12:57;;;;;;;1.87;1.53;;;6.70;99.90;;;;;;4145542;28;20046;-69
2023/05/09 03:15:00;;;;;;;1.67;0.70;;;6.70;99.90;;;;;;4147340;28;20584;-61
2023/05/09 03:17:01;;;;;;;1.80;0.90;;;6.70;99.90;;;;;;4155596;28;20442;-69
2023/05/09 03:19:02;;;;;;;1.33;0.47;;;6.70;99.90;;;;;;4144951;28;20037;-63
2023/05/09 03:21:03;;;;;;;0.93;0.60;;;6.70;99.90;;;;;;4146137;28;20061;-69
2023/05/09 03:23:05;;;;;;;2.43;0.87;;;6.70;99.90;;;;;;4144755;28;20537;-67
2023/05/09 03:25:06;;;;;;;1.10;0.73;;;6.70;99.90;;;;;;4153992;28;20463;-63
2023/05/09 03:27:07;;;;;;;0.63;0.60;;;6.60;99.90;;;;;;4161259;28;20397;-66
2023/05/09 03:29:08;;;;;;;2.37;0.70;;;6.60;99.90;;;;;;4160896;28;20114;-61
2023/05/09 03:31:09;;;;;;;2.37;0.97;;;6.70;99.90;;;;;;4149207;28;20379;-61
2023/05/09 03:33:10;;;;;;;1.93;1.30;;;6.70;99.90;;;;;;4162432;28;20033;-60
2023/05/09 03:35:11;;;;;;;1.10;0.77;;;6.60;99.90;;;;;;4160939;28;20033;-62
2023/05/09 03:37:13;;;;;;;1.00;0.70;;;6.60;99.90;;;;;;4141282;28;20034;-60
2023/05/09 03:39:14;;;;;;;0.70;0.70;;;6.60;99.90;;;;;;4159220;28;20403;-67
2023/05/09 03:41:16;;;;;;;1.63;0.90;;;6.60;99.90;;;;;;4160147;28;20096;-65
2023/05/09 03:43:17;;;;;;;6.53;1.10;;;6.50;99.90;;;;;;4157343;28;20090;-69
2023/05/09 03:45:19;;;;;;;1.53;0.70;;;6.50;99.90;;;;;;4158447;28;20041;-61
2023/05/09 03:47:20;;;;;;;1.67;1.00;;;6.50;99.90;;;;;;4145122;28;20406;-66
2023/05/09 03:49:21;;;;;;;6.03;1.27;;;6.40;99.90;;;;;;4145414;28;20081;-66
2023/05/09 03:51:23;;;;;;;1.87;1.00;;;6.40;99.90;;;;;;4161382;28;20072;-62
2023/05/09 03:53:24;;;;;;;0.63;0.40;;;6.40;99.90;;;;;;4159106;28;20029;-63
2023/05/09 03:55:25;;;;;;;2.07;0.70;;;6.40;99.90;;;;;;4160755;28;20535;-67
2023/05/09 03:57:26;;;;;;;1.57;0.80;;;6.30;99.90;;;;;;4144725;28;20038;-61
2023/05/09 03:59:27;;;;;;;1.80;1.00;;;6.30;99.90;;;;;;4145663;28;20061;-62
2023/05/09 04:01:28;;;;;;;2.23;0.90;;;6.30;99.90;;;;;;4158556;28;20080;-67
2023/05/09 04:03:30;;;;;;;2.43;0.90;;;6.30;99.90;;;;;;4162014;28;20091;-66
2023/05/09 04:05:34;;;;;;;1.70;0.70;;;6.30;99.90;;;;;;4160987;28;20429;-65
2023/05/09 04:07:36;;;;;;;2.17;1.07;;;6.30;99.90;;;;;;4149263;28;20033;-65
2023/05/09 04:09:37;;;;;;;2.30;0.77;;;6.30;99.90;;;;;;4156260;28;20091;-61
2023/05/09 04:11:38;;;;;;;0.93;0.60;;;6.30;99.90;;;;;;4149943;28;20029;-64
2023/05/09 04:13:39;;;;;;;1.53;0.83;;;6.30;99.90;;;;;;4158578;28;20084;-66
2023/05/09 04:15:41;;;;;;;1.27;0.90;;;6.30;99.90;;;;;;4158660;28;20076;-61
2023/05/09 04:17:42;;;;;;;0.93;0.73;;;6.30;99.90;;;;;;4145915;28;20022;-64
2023/05/09 04:19:44;;;;;;;1.40;0.70;;;6.40;99.90;;;;;;4154785;28;20038;-61
2023/05/09 04:21:45;;;;;;;3.43;0.90;;;6.40;99.90;;;;;;4152337;28;20083;-61
2023/05/09 04:23:46;;;;;;;0.90;0.73;;;6.50;99.90;;;;;;4155070;28;20080;-61
2023/05/09 04:25:50;;;;;;;2.40;0.90;;;6.50;99.90;;;;;;4158970;28;20171;-62
2023/05/09 04:27:51;;;;;;;1.17;0.57;;;6.50;99.90;;;;;;4160639;28;20060;-62
2023/05/09 04:29:52;;;;;;;1.83;1.23;;;6.60;99.90;;;;;;4143378;28;20100;-63
2023/05/09 04:31:53;;;;;;;3.17;0.90;;;6.60;99.90;;;;;;4148535;28;20046;-69
2023/05/09 04:33:57;;;;;;;1.97;0.57;;;6.70;99.90;;;;;;4155656;28;20096;-60
2023/05/09 04:35:58;;;;;;;1.27;0.80;;;6.70;99.90;;;;;;4160186;28;20141;-60
2023/05/09 04:37:59;;;;;;;4.33;1.00;;;6.80;99.90;;;;;;4156433;28;20049;-59
2023/05/09 04:40:01;;;;;;;1.73;0.80;;;6.80;99.90;;;;;;4152617;28;20033;-65
2023/05/09 04:42:03;;;;;;;2.83;1.20;;;6.90;99.90;;;;;;4159272;28;20091;-66
2023/05/09 04:44:04;;;;;;;1.07;0.93;;;7.00;99.90;;;;;;4159872;28;20075;-63
2023/05/09 04:46:06;;;;;;;3.33;1.10;;;7.10;99.90;;;;;;4161127;28;20029;-72
2023/05/09 04:48:07;;;;;;;3.33;0.87;;;7.10;99.90;;;;;;4160099;28;20089;-62
2023/05/09 04:50:09;;;;;;;3.13;0.97;;;7.10;99.90;;;;;;4160001;28;20045;-65
2023/05/09 04:52:10;;;;;;;3.90;1.27;;;7.20;99.90;;;;;;4159950;28;20030;-62
2023/05/09 04:54:11;;;;;;;4.30;1.60;;;7.20;99.90;;;;;;4160263;28;20437;-70
2023/05/09 04:56:12;;;;;;;1.73;1.27;;;7.30;99.90;;;;;;4162087;28;20072;-68
2023/05/09 04:58:13;;;;;;;10.77;1.80;;;7.40;99.90;;;;;;4162807;28;20046;-67
2023/05/09 05:00:16;;;;;;;3.17;1.43;;;7.40;99.90;;;;;;4164521;28;20037;-66
2023/05/09 05:02:18;;;;;;;4.27;0.93;;;7.40;99.90;;;;;;4163034;28;20487;-65
2023/05/09 05:04:19;;;;;;;2.77;1.40;;;7.40;99.90;;;;;;4163789;28;20538;-63
2023/05/09 05:06:20;;;;;;;1.33;0.97;;;7.50;99.90;;;;;;4163428;28;20029;-62
2023/05/09 05:08:22;;;;;;;3.57;0.90;;;7.50;99.90;;;;;;4164602;28;20025;-68
2023/05/09 05:10:23;;;;;;;2.07;1.07;;;7.50;99.90;;;;;;4162453;28;20083;-68
2023/05/09 05:12:24;;;;;;;5.40;1.10;;;7.60;99.90;;;;;;4164387;28;20076;-67
2023/05/09 05:14:25;;;;;;;2.70;1.40;;;7.70;99.90;;;;;;4163114;28;20113;-69
2023/05/09 05:16:26;;;;;;;3.87;1.20;;;7.70;99.90;;;;;;4163903;28;20030;-67
2023/05/09 05:18:27;;;;;;;1.77;0.90;;;7.80;99.90;;;;;;4163537;28;20119;-60
2023/05/09 05:20:28;;;;;;;3.83;1.07;;;7.70;99.90;;;;;;4163404;28;20045;-70
2023/05/09 05:22:29;;;;;;;2.20;1.00;;;7.70;99.90;;;;;;4164045;28;20060;-69
2023/05/09 05:24:30;;;;;;;1.83;1.23;;;7.70;99.90;;;;;;4163600;28;20080;-67
2023/05/09 05:26:32;;;;;;;2.20;1.13;;;7.80;99.90;;;;;;4164306;28;20087;-70
2023/05/09 05:28:33;;;;;;;4.50;1.37;;;7.90;99.90;;;;;;4145481;28;20083;-60
2023/05/09 05:30:34;;;;;;;3.83;1.67;;;7.90;99.90;;;;;;4163497;28;20029;-64
2023/05/09 05:32:35;;;;;;;2.57;1.20;;;8.00;99.90;;;;;;4162916;28;20030;-63
2023/05/09 05:34:38;;;;;;;2.57;1.23;;;8.00;99.90;;;;;;4163835;28;20477;-70
2023/05/09 05:36:39;;;;;;;6.13;1.67;;;8.10;99.90;;;;;;4162751;28;20087;-66
2023/05/09 05:38:40;;;;;;;2.30;1.10;;;8.10;99.90;;;;;;4163928;28;20060;-61
2023/05/09 05:40:41;;;;;;;3.13;1.50;;;8.20;99.90;;;;;;4162867;28;20083;-67
2023/05/09 05:42:43;;;;;;;1.67;1.50;;;8.20;99.90;;;;;;4164165;28;20425;-58
2023/05/09 05:44:44;;;;;;;4.67;1.37;;;8.30;99.90;;;;;;4162750;28;20033;-67
2023/05/09 05:46:45;;;;;;;4.33;1.13;;;8.30;99.90;;;;;;4163529;28;20072;-63
2023/05/09 05:48:46;;;;;;;2.20;1.20;;;8.40;99.90;;;;;;4162853;28;20025;-60
2023/05/09 05:50:47;;;;;;;2.40;1.57;;;8.40;99.90;;;;;;4163301;28;20080;-61
2023/05/09 05:52:48;;;;;;;3.27;1.27;;;8.50;99.90;;;;;;4163125;28;20425;-66
2023/05/09 05:54:49;;;;;;;4.67;1.20;;;8.50;99.90;;;;;;4162849;28;20029;-68
2023/05/09 05:56:50;;;;;;;4.37;2.33;;;8.60;99.90;;;;;;4162718;28;20041;-66
2023/05/09 05:58:52;;;;;;;4.73;1.80;;;8.70;99.90;;;;;;4162431;28;20030;-66
2023/05/09 06:00:54;;;;;;;2.90;1.40;;;8.80;99.90;;;;;;4162987;28;20147;-66
2023/05/09 06:02:55;;;;;;;5.47;1.90;;;8.90;99.90;;;;;;4161660;28;20083;-70
2023/05/09 06:04:56;;;;;;;2.63;1.60;;;9.00;99.90;;;;;;4163502;28;20095;-69
2023/05/09 06:06:57;;;;;;;2.23;1.40;;;9.10;99.90;;;;;;4162803;28;20033;-70
2023/05/09 06:08:58;;;;;;;2.87;1.70;;;9.10;99.90;;;;;;4162321;28;20013;-66
2023/05/09 06:11:00;;;;;;;2.37;1.33;;;9.20;99.90;;;;;;4162569;28;20507;-61
2023/05/09 06:13:01;;;;;;;4.57;1.33;;;9.30;99.90;;;;;;4163111;28;20045;-62
2023/05/09 06:15:06;;;;;;;1.63;0.70;;;9.30;99.90;;;;;;4162223;28;20451;-64
2023/05/09 06:17:07;;;;;;;1.03;0.50;;;9.40;99.90;;;;;;4163190;28;20041;-70
2023/05/09 06:19:08;;;;;;;0.90;0.30;;;9.50;99.90;;;;;;4161884;28;20045;-65
2023/05/09 06:21:09;;;;;;;1.70;0.30;;;9.60;99.90;;;;;;4163186;28;20079;-69
2023/05/09 06:23:11;;;;;;;1.30;0.87;;;9.80;99.90;;;;;;4162701;28;20030;-67
2023/05/09 06:25:12;;;;;;;0.40;0.33;;;9.90;99.90;;;;;;4162257;28;20080;-68
2023/05/09 06:27:13;;;;;;;0.40;0.40;;;9.90;99.90;;;;;;4163010;28;20103;-69
2023/05/09 06:29:14;;;;;;;0.70;0.30;;;10.00;99.90;;;;;;4161315;28;20555;-66
2023/05/09 06:31:15;;;;;;;2.30;0.60;;;10.00;99.90;;;;;;4162781;28;20041;-69
2023/05/09 06:33:16;;;;;;;0.87;0.80;;;10.10;99.90;;;;;;4161488;28;20033;-68
2023/05/09 06:35:18;;;;;;;0.40;0.40;;;10.10;99.90;;;;;;4163229;28;20099;-70
2023/05/09 06:37:19;;;;;;;0.80;0.57;;;10.00;99.90;;;;;;4162475;28;20045;-65
2023/05/09 06:39:20;;;;;;;0.90;0.60;;;10.00;99.90;;;;;;4163070;28;20095;-69
2023/05/09 06:41:21;;;;;;;1.03;0.70;;;10.00;99.90;;;;;;4161809;28;20421;-65
2023/05/09 06:43:22;;;;;;;0.60;0.50;;;10.10;99.90;;;;;;4162355;28;20041;-68
2023/05/09 06:45:23;;;;;;;0.80;0.50;;;10.10;99.90;;;;;;4161250;28;20140;-69
2023/05/09 06:47:25;;;;;;;0.80;0.60;;;10.10;99.90;;;;;;4162994;28;20095;-70
2023/05/09 06:49:26;;;;;;;3.30;1.37;;;10.10;99.90;;;;;;4162194;28;20030;-70
2023/05/09 06:51:27;;;;;;;1.13;0.57;;;10.00;99.90;;;;;;4162603;28;20029;-69
2023/05/09 06:53:28;;;;;;;1.60;1.00;;;10.10;99.90;;;;;;4162039;28;20029;-70
2023/05/09 06:55:29;;;;;;;2.03;0.70;;;10.10;99.90;;;;;;4161162;28;20430;-69
2023/05/09 06:57:31;;;;;;;2.40;0.90;;;10.30;99.90;;;;;;4162434;28;20037;-70
2023/05/09 06:59:32;;;;;;;1.83;0.60;;;10.70;99.90;;;;;;4161317;28;20034;-71
2023/05/09 07:01:33;;;;;;;1.23;0.63;;;11.10;99.90;;;;;;4162511;28;20543;-63
2023/05/09 07:03:34;;;;;;;1.00;0.90;;;11.50;99.90;;;;;;4161501;28;20029;-63
2023/05/09 07:05:35;;;;;;;1.80;1.50;;;11.80;99.90;;;;;;4162538;28;20037;-70
2023/05/09 07:07:36;;;;;;;1.10;0.90;;;12.20;99.90;;;;;;4161985;28;20095;-63
2023/05/09 07:09:38;;;;;;;3.13;0.90;;;12.50;99.90;;;;;;4162830;28;20071;-68
2023/05/09 07:11:39;;;;;;;2.67;0.90;;;12.70;99.90;;;;;;4161377;28;20022;-67
2023/05/09 07:13:40;;;;;;;4.03;1.23;;;12.60;99.90;;;;;;4162173;28;20041;-65
2023/05/09 07:15:41;;;;;;;1.30;1.00;;;12.90;99.90;;;;;;4161449;28;20022;-64
2023/05/09 07:17:42;;;;;;;3.20;0.97;;;12.70;99.90;;;;;;4162352;28;20033;-69
2023/05/09 07:19:43;;;;;;;1.77;1.40;;;12.80;99.90;;;;;;4160423;28;20195;-69
2023/05/09 07:21:45;;;;;;;1.50;1.37;;;13.00;99.90;;;;;;4162169;28;20080;-71
2023/05/09 07:23:46;;;;;;;1.50;1.37;;;13.10;99.90;;;;;;4161748;28;20029;-65
2023/05/09 07:25:47;;;;;;;2.57;1.70;;;13.00;99.90;;;;;;4161652;28;20478;-62
2023/05/09 07:27:48;;;;;;;2.60;1.30;;;12.90;99.90;;;;;;4161809;28;20079;-64
2023/05/09 07:29:51;;;;;;;5.50;2.17;;;12.70;99.90;;;;;;4160869;28;20041;-68
2023/05/09 07:31:52;;;;;;;1.40;1.30;;;12.50;99.90;;;;;;4162095;28;20033;-62
2023/05/09 07:33:53;;;;;;;2.13;1.50;;;12.60;99.90;;;;;;4160300;28;20045;-70
2023/05/09 07:35:54;;;;;;;2.50;1.80;;;12.60;99.90;;;;;;4162483;28;20103;-61
2023/05/09 07:37:55;;;;;;;3.00;1.50;;;12.70;99.90;;;;;;4161292;28;20029;-60
2023/05/09 07:39:56;;;;;;;1.90;1.70;;;12.70;99.50;;;;;;4162206;28;20524;-63
2023/05/09 07:41:57;;;;;;;2.17;1.27;;;12.80;99.90;;;;;;4161127;28;20525;-69
2023/05/09 07:43:58;;;;;;;2.23;1.73;;;12.90;99.80;;;;;;4162117;28;20052;-69
2023/05/09 07:46:00;;;;;;;1.40;1.27;;;12.90;99.90;;;;;;4142848;28;20486;-60
2023/05/09 07:48:02;;;;;;;1.70;1.40;;;12.80;99.00;;;;;;4161867;28;20065;-70
2023/05/09 07:50:03;;;;;;;2.27;1.50;;;12.70;99.50;;;;;;4161062;28;20025;-70
2023/05/09 07:52:04;;;;;;;2.10;1.17;;;12.80;99.90;;;;;;4161571;28;20429;-67
2023/05/09 07:54:05;;;;;;;2.57;1.40;;;12.90;99.90;;;;;;4161150;28;20445;-58
2023/05/09 07:56:07;;;;;;;1.30;1.13;;;13.10;99.90;;;;;;4161096;28;20533;-70
2023/05/09 07:58:08;;;;;;;1.70;1.13;;;12.90;99.60;;;;;;4161405;28;20071;-71
2023/05/09 08:00:09;;;;;;;2.03;1.53;;;13.00;99.70;;;;;;4160792;28;20083;-69
2023/05/09 08:02:10;;;;;;;2.67;1.60;;;12.70;99.10;;;;;;4160939;28;20103;-65
2023/05/09 08:04:12;;;;;;;5.23;1.73;;;12.50;99.50;;;;;;4160673;28;20982;-61
2023/05/09 08:06:13;;;;;;;2.23;1.57;;;12.60;99.90;;;;;;4161932;28;20389;-59
2023/05/09 08:08:14;;;;;;;3.00;1.40;;;12.80;99.70;;;;;;4159862;28;20041;-68
2023/05/09 08:10:15;;;;;;;2.33;1.67;;;12.80;99.50;;;;;;4161683;28;20037;-62
2023/05/09 08:12:16;;;;;;;1.50;1.40;;;12.80;99.20;;;;;;4160342;28;20033;-70
2023/05/09 08:14:17;;;;;;;2.10;1.90;;;12.60;99.20;;;;;;4161001;28;20096;-67
2023/05/09 08:16:19;;;;;;;1.30;1.20;;;12.60;99.40;;;;;;4160315;28;20447;-70
2023/05/09 08:18:20;;;;;;;3.50;1.47;;;12.70;99.30;;;;;;4161362;28;20439;-71
2023/05/09 08:20:21;;;;;;;1.97;1.33;;;12.80;99.30;;;;;;4160547;28;20033;-65
2023/05/09 08:22:23;;;;;;;1.83;1.57;;;12.90;99.40;;;;;;4143563;28;20045;-67
2023/05/09 08:24:24;;;;;;;3.67;1.50;;;12.90;99.50;;;;;;4160827;28;20095;-70
2023/05/09 08:26:26;;;;;;;1.40;1.30;;;12.90;99.70;;;;;;4160764;28;20474;-61
2023/05/09 08:28:30;;;;;;;1.37;1.03;;;13.20;99.50;;;;;;4160190;28;20557;-71
2023/05/09 08:30:31;;;;;;;1.57;1.47;;;13.00;98.90;;;;;;4160093;28;20041;-69
2023/05/09 08:32:32;;;;;;;2.40;1.30;;;12.80;98.90;;;;;;4160864;28;20033;-65
2023/05/09 08:34:34;;;;;;;1.87;1.20;;;12.90;99.40;;;;;;4160186;28;20041;-68
2023/05/09 08:36:35;;;;;;;2.77;1.17;;;12.90;99.50;;;;;;4161792;28;20076;-62
2023/05/09 08:38:39;;;;;;;3.03;1.93;;;13.10;98.80;;;;;;4159990;28;20033;-67
2023/05/09 08:40:40;;;;;;;3.03;2.23;;;13.10;98.80;;;;;;4143299;28;20042;-61
2023/05/09 08:42:44;;;;;;;2.50;1.13;;;13.30;99.00;;;;;;4159309;28;20038;-64
2023/05/09 08:44:45;;;;;;;2.47;1.20;;;13.40;99.00;;;;;;4161253;28;20037;-67
2023/05/09 08:46:48;;;;;;;2.30;1.30;;;13.30;98.10;;;;;;4160091;28;20045;-60
2023/05/09 08:48:50;;;;;;;2.80;1.57;;;13.30;98.40;;;;;;4161225;28;20026;-63
2023/05/09 08:50:53;;;;;;;1.40;1.30;;;13.40;99.00;;;;;;4159571;28;20111;-64
2023/05/09 08:52:55;;;;;;;4.17;1.63;;;13.40;98.50;;;;;;4161199;28;20429;-71
2023/05/09 08:54:56;;;;;;;1.40;1.30;;;13.70;98.40;;;;;;4160098;28;20437;-66
2023/05/09 08:56:59;;;;;;;1.67;1.20;;;13.80;98.00;;;;;;4160912;28;20500;-68
2023/05/09 08:59:01;;;;;;;1.33;1.23;;;13.70;97.50;;;;;;4160453;28;21161;-69
2023/05/09 09:01:05;;;;;;;2.63;1.47;;;13.60;97.90;;;;;;4159447;28;20046;-69
2023/05/09 09:03:07;;;;;;;2.50;1.30;;;13.60;97.50;;;;;;4160600;28;20013;-60
2023/05/09 09:05:09;;;;;;;4.70;1.57;;;13.40;97.40;;;;;;4159881;28;20111;-63
2023/05/09 09:07:12;;;;;;;1.87;1.30;;;13.40;97.70;;;;;;4161315;28;20544;-60
2023/05/09 09:09:16;;;;;;;1.20;1.10;;;13.40;97.70;;;;;;4159917;28;20021;-67
2023/05/09 09:11:17;;;;;;;3.27;2.60;;;13.30;97.60;;;;;;4160965;28;20030;-68
2023/05/09 09:13:19;;;;;;;3.43;2.30;;;13.10;98.00;;;;;;4159747;28;20040;-70
2023/05/09 09:15:23;;;;;;;2.57;1.30;;;13.30;98.30;;;;;;4161012;28;20444;-68
2023/05/09 09:17:28;;;;;;;2.00;1.13;;;13.50;98.10;;;;;;4159833;28;20459;-69
2023/05/09 09:19:32;;;;;;;3.03;1.37;;;13.70;98.30;;;;;;4160404;28;20068;-65
2023/05/09 09:21:33;;;;;;;1.77;1.67;;;13.60;98.20;;;;;;4159585;28;20091;-67
2023/05/09 09:23:37;;;;;;;1.63;1.40;;;13.60;98.30;;;;;;4160823;28;20433;-61
2023/05/09 09:25:39;;;;;;;2.33;1.80;;;13.60;98.20;;;;;;4159224;28;20079;-66
2023/05/09 09:27:40;;;;;;;3.80;1.63;;;13.50;98.30;;;;;;4161172;28;20026;-61
2023/05/09 09:29:41;;;;;;;1.40;1.30;;;13.30;98.50;;;;;;4159863;28;20021;-70
2023/05/09 09:31:44;;;;;;;4.50;2.00;;;13.50;98.80;;;;;;4142486;28;20407;-60
2023/05/09 09:33:47;;;;;;;5.60;1.60;;;13.50;98.10;;;;;;4159525;28;20117;-70
2023/05/09 09:35:52;;;;;;;2.13;1.40;;;13.50;97.80;;;;;;4160463;28;20041;-65
2023/05/09 09:38:00;;;;;;;1.30;1.20;;;13.50;98.10;;;;;;4160160;28;20505;-64
2023/05/09 09:40:02;;;;;;;2.50;1.37;;;13.60;98.10;;;;;;4159941;28;20552;-63
2023/05/09 09:42:12;;;;;;;6.30;1.50;;;13.70;98.10;;;;;;4142851;28;20184;-62
2023/05/09 09:44:15;;;;;;;4.53;1.85;;;13.80;98.40;;;;;;4163106;28;20033;-72
2023/05/09 09:46:17;;;;;;;3.83;1.70;;;13.90;98.40;;;;;;4162867;28;20034;-70
2023/05/09 09:48:23;;;;;;;3.93;1.60;;;14.10;98.40;;;;;;4161460;28;20324;-68
2023/05/09 09:50:24;;;;;;;8.83;2.37;;;14.00;97.90;;;;;;4163181;28;20115;-66
2023/05/09 09:52:25;;;;;;;2.93;1.70;;;14.00;97.90;;;;;;4161779;28;20061;-61
2023/05/09 09:54:27;;;;;;;2.30;1.20;;;13.80;97.80;;;;;;4163514;28;20099;-65
2023/05/09 09:56:46;;;;;;;2.07;1.67;;;13.70;97.80;;;;;;4162617;28;20078;-61
2023/05/09 09:58:47;;;;;;;2.10;1.33;;;13.60;98.20;;;;;;4163633;28;20091;-66
2023/05/09 10:01:06;;;;;;;2.90;1.60;;;13.70;98.00;;;;;;4162521;28;20083;-65
2023/05/09 10:03:14;;;;;;;2.93;1.40;;;13.60;97.60;;;;;;4163133;28;20025;-61
2023/05/09 10:05:22;;;;;;;4.97;1.60;;;13.60;97.80;;;;;;4162224;28;20115;-68
2023/05/09 10:07:24;;;;;;;2.90;1.43;;;13.70;97.80;;;;;;4163855;28;20029;-65
2023/05/09 10:09:27;;;;;;;1.93;1.50;;;13.70;97.40;;;;;;4162312;28;20078;-59
2023/05/09 10:11:28;;;;;;;1.87;1.40;;;13.70;97.20;;;;;;4163482;28;20034;-67
2023/05/09 10:13:29;;;;;;;1.33;1.23;;;13.60;97.20;;;;;;4162290;28;20087;-63
2023/05/09 10:15:31;;;;;;;1.63;1.33;;;13.70;97.30;;;;;;4163160;28;20057;-63
2023/05/09 10:17:32;;;;;;;2.10;1.73;;;13.90;97.20;;;;;;4161984;28;20037;-67
2023/05/09 10:19:36;;;;;;;1.73;1.27;;;13.80;96.20;;;;;;4163339;28;20057;-63
2023/05/09 10:21:39;;;;;;;1.47;1.00;;;13.90;96.80;;;;;;4161566;28;20099;-59
2023/05/09 10:23:45;;;;;;;2.40;1.10;;;14.00;96.80;;;;;;4163068;28;20025;-66
2023/05/09 10:25:55;;;;;;;1.50;1.10;;;14.10;96.80;;;;;;4144289;28;20033;-70
2023/05/09 10:28:00;;;;;;;1.10;1.00;;;14.20;96.60;;;;;;4163056;28;20088;-66
2023/05/09 10:30:31;;;;;;;1.00;0.90;;;14.30;95.70;;;;;;4161855;28;20041;-69
2023/05/09 10:32:46;;;;;;;1.88;1.10;;;14.30;95.20;;;;;;4161469;28;20042;-63
2023/05/09 10:34:52;;;;;;;1.50;0.90;;;14.30;95.40;;;;;;4161165;28;20095;-61
2023/05/09 10:36:53;;;;;;;2.67;1.00;;;14.30;95.00;;;;;;4163527;28;20485;-62
2023/05/09 10:38:55;;;;;;;1.07;0.97;;;14.50;95.00;;;;;;4161959;28;20108;-66
2023/05/09 10:40:56;;;;;;;1.13;1.00;;;14.70;95.00;;;;;;4162813;28;20034;-63
2023/05/09 10:42:57;;;;;;;0.68;0.60;;;14.80;94.40;;;;;;4144176;28;20903;-69